Timeline UpdatesTrip UpdatesNews PostsPvt PostsTravel TipsAdmin PostsConv PostsFollowed PostsChat RequestsBlog PostsPNR Posts

Disclaimer
Search
 
 
Sat Apr 19, 2014 22:42:46 ISTHomeTrainsΣChainsAtlasPNRForumGalleryNewsFAQTripsMembersLoginFeedback
No Recent News for this Train
Other Trains in the News **new
Latest...
Temporary Augmentation of 1 SL coach from 5/4/14-28/6/14 #1043381
Wed Apr 02, 2014 (11:23PM)
⇐ Return Journey: Train# 15905

15906/Dibrugarh - Kanyakumari Vivek Express

Jan 23 2014 (6:52PM)
Change Departure Station:
Change Arrival Station:
Post a Train Travel TipPost a Train Travel Tip **new
Post a Comment/Question/Picture/VideoPost a Comment/Question/Picture/Video
Inaugural Run
Sat Nov 26, 2011
Pantry/Catering
✓ Pantry Car Avbl
✓ Catering Avbl
Loco/Rake Reversals
DGR/Durgapur (5); VSKP/Visakhapatnam Junction (8);
RSA - Rake Sharing
Rake/Coach Composition
LOCO-SLR-GS-GS-GS-B2-B1-A1-S9-PC-S8-S7-S6-S5-S4-S3-S2-S1-GS-GS-GS-SLR
Loco
Official Loco Links:- DBRG - DGR :- WDM-3A /3D DGR...
Read more...
- VSKP :- WAM-4/WAP-4 VSKP - CAPE :- WAM-4/WAP-4
News    PNR    Forum    Time-Table    Availability    Fare Chart    Map    Arr/Dep History    Trips    Gallery    ΣChains    X/O    Timeline    
Travel Time: 26h 20m    18 halts    Distance: 1379 km    Avg Speed: 52 km/hr
Type: Mail/Express
Zone: NFR/Northeast Frontier
Departs @ 07:40 (Avg 52m late)
Platform# ???
  T    
Vijayawada Junction/BZA 
Arrives @ 10:00 +1 night (Avg 2m late)
Platform# ???
   W   
Kanniyakumari/CAPE 

18 halts. 224 intermediate Stations between Vijayawada Junction and Kanniyakumari

Show ALL intermediate Stations  Show Old Time-Table

#CodeStation NameX/OArrivesAvgDepartsAvgHaltPFDay#KmSpeedElevZoneAddress
1DBRGDibrugarh (4)  -23:45+011-2858.542108mNFRDibrugarh 786003, Assam
2NTSKNew Tinsukia Junction (3)  00:45-600:55+010m--2-2816.555124mNFRDist: Tinsukia, Assam
3MXNMariani Junction (4)  03:45+803:55+810m12-2659.848117mNFRDist. Jorhat Pin-785634, Assam
4FKGFurkating Junction (2)  04:43+004:45+02m--2-2621.860101mNFRK B Rd, Assam
5DMVDimapur (3)  05:55+506:00+125m--2-2551.662153mNFRDimapur, Nagaland
6DPUDiphu (2)  06:36+1606:37+231m--2-2514.322180mNFRDiphu, Assam
7LMGLumding Junction (5)  08:05+408:10+55m--2-2482.249142mNFRPh:-03674-263366. changing point for SCL/AGTL, Assam
8JIDJagi Road (2)  10:41+510:42+71m--2-2358.54462mNFRJagiroad, Assam
9GHYGuwahati (7)  12:00-212:15+1015m--2-2301.57360mNFRGuwahati, Assam
10GLPTGoalpara Town  14:02+5414:04+542m--2-2170.93149mNFRGoalpara Town Rail Station, Assam
11NBQNew Bongaigaon Junction (4)  15:45+715:50+85m--2-2119.55858mNFR783381., Assam
12KOJKokrajhar (3)  16:19+3216:20+361m--2-2091.67046mNFR03661-270618, Assam
13APDJAlipur Duar Junction (3)  17:30+3417:35+365m--2-2010.44053mNFR03564-255091, West Bengal
14NJPNew Jalpaiguri Junction (8)X  21:45+3522:00+3615m32-1841.979114mNFRCity-Siliguri . Dist-Jalpaiguri, West Bengal
15KNEKishanGanj (3)X  23:06+5723:08+582m--2-1754.65252mNFRKishanganj, Bihar
16MLDTMalda Town (5)X  02:00+2102:15+1615m--3-1606.45030mERDist - Malda, West Bengal
17RPHRampurhat (3)  04:45+1304:50+155m--3-1482.64341mERDIST - Birbhum, West Bengal
18DGRDurgapur (5)XO07:35+2108:05+1230m13-1364.45171mERDurgapur, West Bengal
19ASNAsansol Junction (7)  08:55+509:05+510m43-1322.045113mERDist - bardhaman, West Bengal
20ADRAAdra Junction (4)  10:00+1410:05+145m43-1280.571190mSERDist - Puruliya, West Bengal
21BQABankura Junction (3)X  10:50+910:52+92m--3-1227.69389mSERDist - Bankura, West Bengal
22MDNMidnapore (3)  11:58+1612:00+162m--3-1125.11553mSERMedinipur, West Bengal
23HIJHijli (2)  12:56+312:57+111m33-1111.38548mSERdist - paschim medinipur, West Bengal
24BLSBalasore (4)  14:16+1414:18+112m33-999.26919mSERBalasore, Odisha
25BHCBhadrak (4)  15:12+1815:14+182m--3-936.79023mECoRBhadrak, Odisha
26CTCCuttack (5)  16:31+4316:33+472m--3-821.04228mECoRCuttack ph.no 0671-2610460, Odisha
27BBSBhubaneswar (4)X  17:13+5017:18+555m43-793.25240mECoRBhubaneshwar ph.no. 0674-2532233, Odisha
28KURKhurda Road Junction (7)X  17:40+1:0217:55+1:0115m--3-774.27725mECoRKhordha, Odisha
29BAMBrahmapur (3)X  19:50+1:0619:55+1:065m23-627.12827mECoRBerhampur, Odisha
30PSAPalasa (3)X  22:33+122:35+32m--3-552.87731mECoRKasibugga, Andhra Pradesh
31CHESrikakulam Road (4)  23:32+223:34+42m--3-479.87434mECoRsrikakulam road ph .no. 08942-287222, Andhra Pradesh
32VZMVizianagaram Junction (5)X  00:30+000:32+32m--4-410.26363mECoRVizianagaram ph.no 08922-225510, Andhra Pradesh
33VSKPVisakhapatnam Junction (8)X01:30+1001:50+1120m34-349.13511mECoRVishakhapatnam 530001, Andhra Pradesh
34DVDDuvvada (4)  02:18+1202:20+122m--4-332.89346mECoRVishakhapatnam District, Andhra Pradesh
35SLOSamalkot Junction (3)  03:46+3703:47+381m34-199.56118mSCRKakinada ph.no.0884-2328824, Andhra Pradesh
36RJYRajahmundry (3)  04:36+3704:38+392m14-149.36723mSCRRajahmundry ph.no. 0883-2420541, Andhra Pradesh
37EEEluru (3)X  05:59+3906:00+401m--4-59.44519mSCREluru Ph.no. 08812 226401., Andhra Pradesh
38BZA»Vijayawada Junction (10)»X  07:20+5207:40+5220m--40.07724mSCRVijayawada 520001, Andhra Pradesh
39OGLOngole (3)  09:28+1:0809:29+1:091m34138.310812mSCROngole ph.no . 08592-280202, Andhra Pradesh
40NLRNellore (4)  10:34+2710:35+271m34255.03421mSCRNellore, Andhra Pradesh
41RURenigunta Junction (5)X  14:10+1114:20+1310m--4376.970113mSCRChittoor District, Andhra Pradesh
42KPDKatpadi Junction (5)  16:08+4016:10+402m14503.550213mSRVellore 632007. Phone No: 0416-2642628, Tamil Nadu
43JTJJolarpettai Junction (5)X  17:50+1317:55+155m--4587.372405mSRJolarpettai jtn. Ph No.04179-241221, Tamil Nadu
44SASalem Junction (6)  19:35+2019:40+205m--4707.567283mSRSalem, Tamil Nadu
45EDErode Junction (4)  20:35+2520:40+305m24769.270175mSRErode ph.no: 0424-2256111, Tamil Nadu
46TUPTiruppur (2)X  21:23+3021:25+312m14819.247305mSRTiruppur. Ph:0421-2200450, Tamil Nadu
47CBECoimbatore Main Junction (6)X  22:30+1822:35+195m--4869.838411mSRCoimbatore 641001, Tamil Nadu
48PGTPalakkad Junction (4)  00:02+800:05+113m--5925.57384mSRPalghat Tel: 0491 2555231, Kerala
49TCRThrissur (4)  01:07+1501:10+153m151001.0626mSRThrissur Tel: 0487 2423150, Kerala
50AWYAluva (3)  02:03+1702:05+172m151055.63412mSRPh: 0484-2624141, Kerala
51ERNErnakulam Town (North) (2)  02:35+1302:40+165m251072.5609mSRTel: 0484 2395198, Kerala
52KTYMKottayam (3)  03:40+2803:45+285m--51132.45315mSRTel: 0481 2563535, Kerala
53CNGRChengannur (3)  04:24+2804:25+291m--51167.2496mSRPh: 0479-2452340, Kerala
54QLNKollam Junction (6)O  05:40+1905:45+205m151228.24816mSRKollam 0474-2746194, Kerala
55TVCTrivandrum Central (5)  07:05+1107:15+1410m151292.83312mSRPh: 0471-2321622, Kerala
56NCJNagercoil Junction (3)  09:25+009:30+75m--51363.93122mSRNagercoil-629002, Tamil Nadu
57CAPE•Kanniyakumari (3)•  10:00+2---51379.4-38mSRKanyakumari, Tamil Nadu
Scroll to Top
Scroll to Bottom